CheckWX is a tool to help pilots better visualize weather data.  It is not intended as a substitute for an official pre-flight weather briefing.

21:39:04 UTC

LEMG TAF
Málaga Airport
Málaga, Spain
TAF LEMG 051700Z 0518/0618 12006KT 9999 SCT025 TX18/0612Z TN11/0606Z BECMG 0518/0520 VRB02KT BECMG 0520/0522 30008KT BECMG 0611/0613 13008KT

Dec-5@
18:00 UTC

Dec-5 @ 18:00 UTC

Dec-6@
18:00 UTC

Dec-6 @ 18:00 UTC

TAF LEMG 051700Z 0518/0618 12006KT 9999 SCT025 TX18/0612Z TN11/0606Z
Wind
  • 120° at 6 KTS
Cloud Levels
  • Scattered at 2,500' AGL

Dec-5@
18:00 UTC

Dec-5 @ 18:00 UTC

Dec-5@
20:00 UTC

Dec-5 @ 20:00 UTC

BECMG 0518/0520 VRB02KT

Expired

Wind
  • Variable at 2 KTS
Cloud Levels
  • Scattered at 2,500' AGL

Dec-5@
20:00 UTC

Dec-5 @ 20:00 UTC

Dec-6@
11:00 UTC

Dec-6 @ 11:00 UTC

BECMG 0520/0522 30008KT

Becoming

Becoming Conditions expected by Thu, Dec 5, 2019 @ 22:00 UTC

Wind
  • 300° at 8 KTS
Cloud Levels
  • Scattered at 2,500' AGL

Dec-6@
11:00 UTC

Dec-6 @ 11:00 UTC

Dec-6@
18:00 UTC

Dec-6 @ 18:00 UTC

BECMG 0611/0613 13008KT

Becoming

Becoming Conditions expected by Fri, Dec 6, 2019 @ 13:00 UTC

Wind
  • 130° at 8 KTS
Cloud Levels
  • Scattered at 2,500' AGL